createdAt,value
2019-05-28T00:00:59.688Z,1000.92
2019-05-28T00:01:59.615Z,1000.91
2019-05-28T00:03:52.492Z,1000.85
2019-05-28T00:04:52.377Z,1000.84
2019-05-28T00:06:45.138Z,1000.85
2019-05-28T00:07:47.547Z,1000.82
2019-05-28T00:09:39.730Z,1000.85
2019-05-28T00:12:11.174Z,1000.84
2019-05-28T00:13:11.200Z,1000.87
2019-05-28T00:15:05.415Z,1000.79
2019-05-28T00:16:04.059Z,1000.79
2019-05-28T00:17:56.778Z,1000.78
2019-05-28T00:18:56.994Z,1000.80
2019-05-28T00:20:49.527Z,1000.81
2019-05-28T00:21:49.387Z,1000.79
2019-05-28T00:23:44.973Z,1000.80
2019-05-28T00:24:43.934Z,1000.76
2019-05-28T00:26:38.205Z,1000.73
2019-05-28T00:27:37.655Z,1000.71
2019-05-28T00:29:30.502Z,1000.67
2019-05-28T00:32:24.007Z,1000.68
2019-05-28T00:33:23.665Z,1000.67
2019-05-28T00:35:16.576Z,1000.65
2019-05-28T00:38:10.172Z,1000.68
2019-05-28T00:39:09.649Z,1000.73
2019-05-28T00:42:04.122Z,1000.70
2019-05-28T00:43:55.458Z,1000.67
2019-05-28T00:44:55.335Z,1000.72
2019-05-28T00:46:49.008Z,1000.69
2019-05-28T00:47:48.302Z,1000.69
2019-05-28T00:49:40.950Z,1000.70
2019-05-28T00:50:40.949Z,1000.67
2019-05-28T00:52:35.329Z,1000.69
2019-05-28T00:53:35.177Z,1000.69
2019-05-28T00:55:28.087Z,1000.68
2019-05-28T00:56:27.888Z,1000.69
2019-05-28T00:58:22.124Z,1000.60
2019-05-28T00:59:21.993Z,1000.59
2019-05-28T01:01:15.114Z,1000.60
2019-05-28T01:02:15.168Z,1000.61
2019-05-28T01:04:08.585Z,1000.64
2019-05-28T01:05:07.958Z,1000.66
2019-05-28T01:07:02.039Z,1000.68
2019-05-28T01:08:01.804Z,1000.67
2019-05-28T01:09:55.004Z,1000.71
2019-05-28T01:10:54.605Z,1000.71
2019-05-28T01:12:47.490Z,1000.67
2019-05-28T01:15:40.292Z,1000.60
2019-05-28T01:16:40.213Z,1000.57
2019-05-28T01:18:34.196Z,1000.57
2019-05-28T01:19:34.299Z,1000.53
2019-05-28T01:21:27.747Z,1000.54
2019-05-28T01:22:27.813Z,1000.52
2019-05-28T01:24:20.870Z,1000.52
2019-05-28T01:25:20.782Z,1000.52
2019-05-28T01:27:14.085Z,1000.51
2019-05-28T01:28:13.929Z,1000.49
2019-05-28T01:30:06.714Z,1000.49
2019-05-28T01:31:06.931Z,1000.48
2019-05-28T01:32:59.610Z,1000.47
2019-05-28T01:33:59.366Z,1000.50
2019-05-28T01:35:52.296Z,1000.51
2019-05-28T01:36:52.175Z,1000.52
2019-05-28T01:38:45.326Z,1000.49
2019-05-28T01:39:44.939Z,1000.46
2019-05-28T01:41:38.118Z,1000.45
2019-05-28T01:42:37.709Z,1000.44
2019-05-28T01:44:30.535Z,1000.43
2019-05-28T01:45:30.430Z,1000.44
2019-05-28T01:47:23.796Z,1000.36
2019-05-28T01:48:23.197Z,1000.37
2019-05-28T01:50:16.911Z,1000.36
2019-05-28T01:51:16.852Z,1000.37
2019-05-28T01:53:10.915Z,1000.39
2019-05-28T01:55:29.541Z,1000.33
2019-05-28T01:56:29.567Z,1000.32
2019-05-28T01:58:22.322Z,1000.36
2019-05-28T01:59:22.300Z,1000.39
2019-05-28T02:01:15.051Z,1000.39
2019-05-28T02:02:14.946Z,1000.42
2019-05-28T02:04:07.756Z,1000.39
2019-05-28T02:05:07.686Z,1000.38
2019-05-28T02:07:00.442Z,1000.38
2019-05-28T02:08:00.378Z,1000.35
2019-05-28T02:09:53.164Z,1000.38
2019-05-28T02:10:53.201Z,1000.36
2019-05-28T02:12:45.871Z,1000.39
2019-05-28T02:13:45.817Z,1000.42
2019-05-28T02:15:38.614Z,1000.45
2019-05-28T02:16:38.529Z,1000.43
2019-05-28T02:18:31.425Z,1000.46
2019-05-28T02:19:31.339Z,1000.43
2019-05-28T02:21:24.301Z,1000.43
2019-05-28T02:22:24.087Z,1000.43
2019-05-28T02:24:16.890Z,1000.42
2019-05-28T02:25:16.808Z,1000.45
2019-05-28T02:27:09.711Z,1000.47
2019-05-28T02:28:09.567Z,1000.48
2019-05-28T02:30:03.491Z,1000.48
2019-05-28T02:31:03.341Z,1000.50
2019-05-28T02:32:56.061Z,1000.51
2019-05-28T02:33:55.989Z,1000.51
2019-05-28T02:35:48.886Z,1000.53
2019-05-28T02:36:48.769Z,1000.54
2019-05-28T02:38:41.560Z,1000.52
2019-05-28T02:39:41.576Z,1000.53
2019-05-28T02:41:35.199Z,1000.49
2019-05-28T02:42:35.023Z,1000.51
2019-05-28T02:44:27.842Z,1000.54
2019-05-28T02:45:27.512Z,1000.53
2019-05-28T02:47:20.289Z,1000.52
2019-05-28T02:48:20.240Z,1000.51
2019-05-28T02:50:13.020Z,1000.49
2019-05-28T02:51:13.084Z,1000.53
2019-05-28T02:53:06.080Z,1000.48
2019-05-28T02:54:05.740Z,1000.51
2019-05-28T02:55:58.730Z,1000.51
2019-05-28T02:56:58.456Z,1000.54
2019-05-28T02:58:51.232Z,1000.57
2019-05-28T02:59:51.574Z,1000.53
2019-05-28T03:01:45.063Z,1000.54
2019-05-28T03:02:44.216Z,1000.54
2019-05-28T03:04:37.121Z,1000.54
2019-05-28T03:05:36.887Z,1000.55
2019-05-28T03:07:29.868Z,1000.49
2019-05-28T03:08:29.794Z,1000.54
2019-05-28T03:10:22.727Z,1000.52
2019-05-28T03:11:22.648Z,1000.55
2019-05-28T03:13:15.382Z,1000.55
2019-05-28T03:14:15.334Z,1000.53
2019-05-28T03:16:08.082Z,1000.50
2019-05-28T03:17:07.993Z,1000.51
2019-05-28T03:19:00.848Z,1000.52
2019-05-28T03:20:00.752Z,1000.51
2019-05-28T03:21:53.549Z,1000.54
2019-05-28T03:22:53.470Z,1000.53
2019-05-28T03:24:46.332Z,1000.47
2019-05-28T03:25:46.172Z,1000.52
2019-05-28T03:27:38.975Z,1000.51
2019-05-28T03:28:38.912Z,1000.52
2019-05-28T03:30:32.029Z,1000.55
2019-05-28T03:31:31.630Z,1000.53
2019-05-28T03:33:24.386Z,1000.57
2019-05-28T03:34:24.510Z,1000.54
2019-05-28T03:36:17.151Z,1000.54
2019-05-28T03:37:17.063Z,1000.54
2019-05-28T03:39:09.838Z,1000.51
2019-05-28T03:40:09.789Z,1000.54
2019-05-28T03:42:02.596Z,1000.54
2019-05-28T03:43:02.504Z,1000.53
2019-05-28T03:44:55.339Z,1000.51
2019-05-28T03:45:55.285Z,1000.54
2019-05-28T03:47:48.023Z,1000.48
2019-05-28T03:48:48.036Z,1000.51
2019-05-28T03:50:40.752Z,1000.46
2019-05-28T03:51:40.678Z,1000.45
2019-05-28T03:53:33.479Z,1000.47
2019-05-28T03:54:33.396Z,1000.46
2019-05-28T03:56:27.059Z,1000.46
2019-05-28T03:57:26.967Z,1000.47
2019-05-28T03:59:19.904Z,1000.49
2019-05-28T04:00:19.830Z,1000.52
2019-05-28T04:02:23.030Z,1000.52
2019-05-28T04:03:12.528Z,1000.49
2019-05-28T04:05:05.305Z,1000.55
2019-05-28T04:06:05.225Z,1000.55
2019-05-28T04:07:58.248Z,1000.57
2019-05-28T04:08:58.500Z,1000.61
2019-05-28T04:10:51.143Z,1000.59
2019-05-28T04:11:51.310Z,1000.55
2019-05-28T04:13:43.914Z,1000.58
2019-05-28T04:14:43.693Z,1000.60
2019-05-28T04:16:36.491Z,1000.60
2019-05-28T04:17:36.433Z,1000.55
2019-05-28T04:19:29.695Z,1000.53
2019-05-28T04:20:29.312Z,1000.58
2019-05-28T04:22:22.090Z,1000.55
2019-05-28T04:23:22.127Z,1000.53
2019-05-28T04:25:15.021Z,1000.55
2019-05-28T04:26:15.125Z,1000.57
2019-05-28T04:28:08.615Z,1000.58
2019-05-28T04:29:07.741Z,1000.60
2019-05-28T04:31:00.395Z,1000.57
2019-05-28T04:32:00.439Z,1000.61
2019-05-28T04:33:53.109Z,1000.60
2019-05-28T04:34:53.222Z,1000.61
2019-05-28T04:36:46.600Z,1000.58
2019-05-28T04:37:45.837Z,1000.59
2019-05-28T04:39:39.078Z,1000.61
2019-05-28T04:40:39.007Z,1000.58
2019-05-28T04:42:32.660Z,1000.64
2019-05-28T04:43:32.612Z,1000.63
2019-05-28T04:45:25.439Z,1000.63
2019-05-28T04:46:25.511Z,1000.62
2019-05-28T04:48:18.387Z,1000.64
2019-05-28T04:49:18.489Z,1000.58
2019-05-28T04:51:12.024Z,1000.60
2019-05-28T04:52:11.663Z,1000.58
2019-05-28T04:54:04.809Z,1000.59
2019-05-28T04:55:04.980Z,1000.59
2019-05-28T04:56:57.584Z,1000.59
2019-05-28T04:57:57.516Z,1000.62
2019-05-28T04:59:50.872Z,1000.63
2019-05-28T05:00:51.366Z,1000.63
2019-05-28T05:02:58.679Z,1000.67
2019-05-28T05:03:43.790Z,1000.61
2019-05-28T05:05:36.902Z,1000.60
2019-05-28T05:06:36.827Z,1000.63
2019-05-28T05:08:31.086Z,1000.63
2019-05-28T05:09:29.689Z,1000.61
2019-05-28T05:11:22.742Z,1000.60
2019-05-28T05:12:22.621Z,1000.61
2019-05-28T05:14:15.525Z,1000.57
2019-05-28T05:15:15.678Z,1000.51
2019-05-28T05:17:08.433Z,1000.55
2019-05-28T05:18:08.776Z,1000.56
2019-05-28T05:20:02.632Z,1000.53
2019-05-28T05:21:01.446Z,1000.56
2019-05-28T05:22:55.211Z,1000.53
2019-05-28T05:23:55.390Z,1000.53
2019-05-28T05:25:47.962Z,1000.59
2019-05-28T05:26:47.907Z,1000.58
2019-05-28T05:28:41.342Z,1000.65
2019-05-28T05:29:40.786Z,1000.64
2019-05-28T05:31:33.998Z,1000.60
2019-05-28T05:32:34.476Z,1000.69
2019-05-28T05:34:26.810Z,1000.69
2019-05-28T05:35:27.712Z,1000.70
2019-05-28T05:37:19.774Z,1000.72
2019-05-28T05:38:19.752Z,1000.74
2019-05-28T05:40:12.809Z,1000.72
2019-05-28T05:41:12.930Z,1000.70
2019-05-28T05:43:06.236Z,1000.74
2019-05-28T05:44:06.450Z,1000.74
2019-05-28T05:45:59.953Z,1000.69
2019-05-28T05:46:59.222Z,1000.76
2019-05-28T05:48:52.873Z,1000.76
2019-05-28T05:49:53.016Z,1000.74
2019-05-28T05:51:46.079Z,1000.74
2019-05-28T05:52:45.298Z,1000.78
2019-05-28T05:54:38.095Z,1000.78
2019-05-28T05:55:38.380Z,1000.79
2019-05-28T05:57:31.053Z,1000.74
2019-05-28T05:58:31.089Z,1000.74
2019-05-28T06:00:23.996Z,1000.72
2019-05-28T06:01:23.968Z,1000.75
2019-05-28T06:03:16.927Z,1000.78
2019-05-28T06:04:16.747Z,1000.78
2019-05-28T06:06:10.453Z,1000.85
2019-05-28T06:07:10.764Z,1000.77
2019-05-28T06:09:03.316Z,1000.84
2019-05-28T06:10:03.218Z,1000.82
2019-05-28T06:11:56.304Z,1000.94
2019-05-28T06:12:56.250Z,1000.97
2019-05-28T06:14:50.072Z,1000.97
2019-05-28T06:15:49.921Z,1000.97
2019-05-28T06:17:42.646Z,1000.94
2019-05-28T06:18:42.628Z,1000.95
2019-05-28T06:20:35.499Z,1000.92
2019-05-28T06:21:36.103Z,1000.96
2019-05-28T06:23:28.347Z,1000.96
2019-05-28T06:24:28.254Z,1000.93
2019-05-28T06:26:21.367Z,1000.94
2019-05-28T06:27:21.341Z,1000.92
2019-05-28T06:29:15.009Z,1000.91
2019-05-28T06:30:13.959Z,1000.89
2019-05-28T06:32:06.965Z,1000.90
2019-05-28T06:33:06.806Z,1000.90
2019-05-28T06:35:01.195Z,1000.89
2019-05-28T06:36:00.579Z,1000.93
2019-05-28T06:37:53.543Z,1000.96
2019-05-28T06:38:53.649Z,1000.93
2019-05-28T06:40:46.800Z,1000.91
2019-05-28T06:41:46.219Z,1000.93
2019-05-28T06:43:39.066Z,1000.95
2019-05-28T06:44:38.984Z,1000.95
2019-05-28T06:46:31.833Z,1000.93
2019-05-28T06:47:31.823Z,1000.91
2019-05-28T06:49:24.790Z,1000.94
2019-05-28T06:50:24.687Z,1000.95
2019-05-28T06:52:17.788Z,1000.92
2019-05-28T06:53:17.758Z,1000.92
2019-05-28T06:55:10.578Z,1000.94
2019-05-28T06:56:10.473Z,1000.97
2019-05-28T06:58:03.418Z,1000.98
2019-05-28T06:59:03.299Z,1000.95
2019-05-28T07:00:56.195Z,1000.99
2019-05-28T07:01:56.032Z,1000.94
2019-05-28T07:03:49.005Z,1001.01
2019-05-28T07:04:48.911Z,1001.03
2019-05-28T07:06:41.647Z,1001.04
2019-05-28T07:07:41.738Z,1001.06
2019-05-28T07:09:34.573Z,1001.05
2019-05-28T07:10:35.610Z,1001.07
2019-05-28T07:12:27.554Z,1001.08
2019-05-28T07:13:27.553Z,1001.07
2019-05-28T07:15:20.383Z,1001.12
2019-05-28T07:16:20.552Z,1001.10
2019-05-28T07:18:13.384Z,1001.13
2019-05-28T07:19:23.994Z,1001.16
2019-05-28T07:21:06.264Z,1001.17
2019-05-28T07:22:06.072Z,1001.14
2019-05-28T07:23:59.482Z,1001.10
2019-05-28T07:24:58.992Z,1001.17
2019-05-28T07:26:51.849Z,1001.14
2019-05-28T07:28:09.088Z,1001.15
2019-05-28T07:29:44.450Z,1001.18
2019-05-28T07:30:44.347Z,1001.17
2019-05-28T07:32:37.191Z,1001.20
2019-05-28T07:33:37.116Z,1001.23
2019-05-28T07:35:44.850Z,1001.17
2019-05-28T07:36:30.133Z,1001.19
2019-05-28T07:38:23.971Z,1001.19
2019-05-28T07:39:23.669Z,1001.21
2019-05-28T07:41:16.575Z,1001.22
2019-05-28T07:42:31.729Z,1001.23
2019-05-28T07:44:09.995Z,1001.20
2019-05-28T07:45:09.420Z,1001.20
2019-05-28T07:47:02.974Z,1001.25
2019-05-28T07:48:02.281Z,1001.24
2019-05-28T07:49:55.530Z,1001.26
2019-05-28T07:50:55.300Z,1001.28
2019-05-28T07:52:48.219Z,1001.35
2019-05-28T07:53:48.087Z,1001.30
2019-05-28T07:55:41.029Z,1001.33
2019-05-28T07:56:40.876Z,1001.29
2019-05-28T07:58:34.023Z,1001.31
2019-05-28T07:59:34.260Z,1001.28
2019-05-28T08:01:26.912Z,1001.31
2019-05-28T08:02:26.813Z,1001.25
2019-05-28T08:04:20.051Z,1001.29
2019-05-28T08:05:19.875Z,1001.28
2019-05-28T08:07:12.749Z,1001.34
2019-05-28T08:08:13.083Z,1001.33
2019-05-28T08:10:06.525Z,1001.38
2019-05-28T08:11:06.462Z,1001.37
2019-05-28T08:12:59.398Z,1001.33
2019-05-28T08:13:59.320Z,1001.35
2019-05-28T08:15:52.058Z,1001.29
2019-05-28T08:16:53.262Z,1001.28
2019-05-28T08:18:44.797Z,1001.34
2019-05-28T08:19:44.891Z,1001.31
2019-05-28T08:21:37.654Z,1001.35
2019-05-28T08:22:42.733Z,1001.37
2019-05-28T08:24:30.465Z,1001.39
2019-05-28T08:25:46.116Z,1001.40
2019-05-28T08:27:23.244Z,1001.34
2019-05-28T08:28:23.261Z,1001.36
2019-05-28T08:30:16.013Z,1001.37
2019-05-28T08:31:20.691Z,1001.34
2019-05-28T08:33:08.733Z,1001.34
2019-05-28T08:34:08.584Z,1001.35
2019-05-28T08:36:26.142Z,1001.40
2019-05-28T08:37:26.098Z,1001.36
2019-05-28T08:39:19.266Z,1001.39
2019-05-28T08:40:18.589Z,1001.38
2019-05-28T08:42:11.636Z,1001.42
2019-05-28T08:43:11.930Z,1001.39
2019-05-28T08:45:04.965Z,1001.34
2019-05-28T08:46:04.391Z,1001.40
2019-05-28T08:47:57.180Z,1001.42
2019-05-28T08:48:57.114Z,1001.44
2019-05-28T08:50:50.493Z,1001.45
2019-05-28T08:51:50.225Z,1001.50
2019-05-28T08:53:43.284Z,1001.50
2019-05-28T08:54:43.035Z,1001.56
2019-05-28T08:56:36.444Z,1001.59
2019-05-28T08:57:36.433Z,1001.57
2019-05-28T08:59:29.474Z,1001.58
2019-05-28T09:00:29.272Z,1001.57
2019-05-28T09:02:28.018Z,1001.60
2019-05-28T09:03:22.057Z,1001.60
2019-05-28T09:05:25.738Z,1001.58
2019-05-28T09:06:15.079Z,1001.59
2019-05-28T09:08:07.587Z,1001.57
2019-05-28T09:09:07.512Z,1001.52
2019-05-28T09:11:00.650Z,1001.56
2019-05-28T09:12:00.566Z,1001.54
2019-05-28T09:13:53.624Z,1001.59
2019-05-28T09:14:56.251Z,1001.56
2019-05-28T09:16:46.092Z,1001.59
2019-05-28T09:17:45.990Z,1001.59
2019-05-28T09:19:38.950Z,1001.60
2019-05-28T09:20:38.719Z,1001.61
2019-05-28T09:22:31.601Z,1001.61
2019-05-28T09:23:31.603Z,1001.61
2019-05-28T09:25:24.455Z,1001.70
2019-05-28T09:26:24.718Z,1001.67
2019-05-28T09:28:29.270Z,1001.68
2019-05-28T09:29:17.052Z,1001.67
2019-05-28T09:31:09.857Z,1001.72
2019-05-28T09:32:09.784Z,1001.69
2019-05-28T09:34:02.679Z,1001.68
2019-05-28T09:35:03.036Z,1001.68
2019-05-28T09:36:56.037Z,1001.68
2019-05-28T09:37:55.263Z,1001.68
2019-05-28T09:39:48.373Z,1001.63
2019-05-28T09:40:50.438Z,1001.69
2019-05-28T09:42:40.816Z,1001.72
2019-05-28T09:43:40.723Z,1001.70
2019-05-28T09:45:33.724Z,1001.73
2019-05-28T09:46:33.591Z,1001.71
2019-05-28T09:48:26.387Z,1001.67
2019-05-28T09:49:26.588Z,1001.66
2019-05-28T09:51:19.208Z,1001.64
2019-05-28T09:52:19.085Z,1001.65
2019-05-28T09:54:12.434Z,1001.66
2019-05-28T09:57:04.869Z,1001.69
2019-05-28T09:58:05.063Z,1001.69
2019-05-28T09:59:57.606Z,1001.62
2019-05-28T10:00:59.060Z,1001.60
2019-05-28T10:02:50.828Z,1001.60
2019-05-28T10:03:50.517Z,1001.63
2019-05-28T10:05:56.994Z,1001.65
2019-05-28T10:06:43.050Z,1001.62
2019-05-28T10:08:36.009Z,1001.64
2019-05-28T10:09:36.037Z,1001.65
2019-05-28T10:11:29.310Z,1001.66
2019-05-28T10:12:29.224Z,1001.64
2019-05-28T10:14:23.745Z,1001.69
2019-05-28T10:15:22.153Z,1001.67
2019-05-28T10:17:15.092Z,1001.65
2019-05-28T10:18:14.915Z,1001.67
2019-05-28T10:20:09.811Z,1001.71
2019-05-28T10:21:18.395Z,1001.70
2019-05-28T10:23:03.987Z,1001.74
2019-05-28T10:24:02.794Z,1001.73
2019-05-28T10:25:55.894Z,1001.70
2019-05-28T10:26:55.683Z,1001.74
2019-05-28T10:28:50.755Z,1001.80
2019-05-28T10:29:50.635Z,1001.77
2019-05-28T10:31:43.049Z,1001.79
2019-05-28T10:32:42.968Z,1001.82
2019-05-28T10:34:35.785Z,1001.80
2019-05-28T10:35:35.713Z,1001.83
2019-05-28T10:37:54.379Z,1001.77
2019-05-28T10:38:54.270Z,1001.75
2019-05-28T10:40:47.088Z,1001.79
2019-05-28T10:41:47.038Z,1001.79
2019-05-28T10:43:39.810Z,1001.77
2019-05-28T10:44:39.735Z,1001.77
2019-05-28T10:46:32.562Z,1001.73
2019-05-28T10:47:32.521Z,1001.81
2019-05-28T10:49:25.286Z,1001.76
2019-05-28T10:50:25.225Z,1001.79
2019-05-28T10:52:18.036Z,1001.81
2019-05-28T10:53:18.000Z,1001.80
2019-05-28T10:55:10.778Z,1001.80
2019-05-28T10:56:10.869Z,1001.78
2019-05-28T10:58:03.483Z,1001.78
2019-05-28T10:59:03.418Z,1001.80
2019-05-28T11:00:56.187Z,1001.73
2019-05-28T11:01:56.124Z,1001.79
2019-05-28T11:03:49.000Z,1001.78
2019-05-28T11:04:48.975Z,1001.80
2019-05-28T11:06:51.321Z,1001.80
2019-05-28T11:07:41.675Z,1001.79
2019-05-28T11:09:34.473Z,1001.78
2019-05-28T11:10:34.418Z,1001.82
2019-05-28T11:12:27.234Z,1001.80
2019-05-28T11:13:27.156Z,1001.80
2019-05-28T11:15:23.644Z,1001.79
2019-05-28T11:16:19.907Z,1001.79
2019-05-28T11:18:12.735Z,1001.78
2019-05-28T11:19:12.658Z,1001.79
2019-05-28T11:21:09.434Z,1001.85
2019-05-28T11:22:05.403Z,1001.84
2019-05-28T11:23:58.192Z,1001.84
2019-05-28T11:24:58.092Z,1001.82
2019-05-28T11:26:50.991Z,1001.76
2019-05-28T11:27:50.903Z,1001.75
2019-05-28T11:29:43.672Z,1001.73
2019-05-28T11:30:43.618Z,1001.71
2019-05-28T11:32:36.430Z,1001.67
2019-05-28T11:33:36.377Z,1001.67
2019-05-28T11:35:29.174Z,1001.70
2019-05-28T11:36:29.106Z,1001.69
2019-05-28T11:38:21.916Z,1001.71
2019-05-28T11:39:21.826Z,1001.67
2019-05-28T11:41:14.639Z,1001.71
2019-05-28T11:42:14.560Z,1001.75
2019-05-28T11:44:07.343Z,1001.76
2019-05-28T11:45:07.375Z,1001.79
2019-05-28T11:47:00.125Z,1001.75
2019-05-28T11:47:59.999Z,1001.76
2019-05-28T11:49:52.822Z,1001.71
2019-05-28T11:50:52.746Z,1001.73
2019-05-28T11:52:45.542Z,1001.74
2019-05-28T11:53:45.471Z,1001.72
2019-05-28T11:55:38.251Z,1001.75
2019-05-28T11:56:38.184Z,1001.73
2019-05-28T11:58:31.017Z,1001.77
2019-05-28T11:59:30.939Z,1001.79
2019-05-28T12:01:34.673Z,1001.86
2019-05-28T12:02:23.661Z,1001.83
2019-05-28T12:04:16.475Z,1001.86
2019-05-28T12:05:16.487Z,1001.86
2019-05-28T12:07:22.920Z,1001.84
2019-05-28T12:08:09.132Z,1001.80
2019-05-28T12:10:02.186Z,1001.78
2019-05-28T12:11:01.865Z,1001.82
2019-05-28T12:12:54.822Z,1001.80
2019-05-28T12:13:54.763Z,1001.83
2019-05-28T12:15:47.598Z,1001.83
2019-05-28T12:16:47.526Z,1001.88
2019-05-28T12:18:40.330Z,1001.86
2019-05-28T12:19:40.246Z,1001.90
2019-05-28T12:21:33.030Z,1001.88
2019-05-28T12:22:32.968Z,1001.87
2019-05-28T12:24:28.281Z,1001.94
2019-05-28T12:25:25.692Z,1001.91
2019-05-28T12:27:18.499Z,1001.91
2019-05-28T12:28:36.523Z,1001.90
2019-05-28T12:30:11.276Z,1001.91
2019-05-28T12:31:11.182Z,1001.90
2019-05-28T12:33:03.969Z,1001.88
2019-05-28T12:34:03.908Z,1001.86
2019-05-28T12:35:56.690Z,1001.91
2019-05-28T12:36:56.627Z,1001.93
2019-05-28T12:38:49.426Z,1001.94
2019-05-28T12:39:49.375Z,1002.01
2019-05-28T12:41:42.155Z,1001.97
2019-05-28T12:42:42.086Z,1001.97
2019-05-28T12:44:42.098Z,1001.98
2019-05-28T12:45:36.247Z,1001.98
2019-05-28T12:47:27.620Z,1001.95
2019-05-28T12:48:27.542Z,1001.96
2019-05-28T12:50:20.975Z,1001.98
2019-05-28T12:51:20.302Z,1001.96
2019-05-28T12:53:13.111Z,1002.04
2019-05-28T12:54:12.984Z,1001.99
2019-05-28T12:56:05.789Z,1002.00
2019-05-28T12:57:05.694Z,1002.00
2019-05-28T12:58:58.501Z,1002.03
2019-05-28T12:59:58.522Z,1002.02
2019-05-28T13:01:51.229Z,1002.00
2019-05-28T13:02:51.165Z,1001.99
2019-05-28T13:04:43.984Z,1002.01
2019-05-28T13:05:43.927Z,1002.00
2019-05-28T13:07:36.678Z,1001.96
2019-05-28T13:08:36.640Z,1001.96
2019-05-28T13:10:29.425Z,1001.98
2019-05-28T13:11:29.344Z,1002.02
2019-05-28T13:13:22.229Z,1002.01
2019-05-28T13:14:22.090Z,1002.06
2019-05-28T13:16:14.863Z,1001.97
2019-05-28T13:17:14.783Z,1002.04
2019-05-28T13:19:07.600Z,1002.04
2019-05-28T13:20:07.556Z,1002.04
2019-05-28T13:22:00.299Z,1002.01
2019-05-28T13:23:00.287Z,1002.01
2019-05-28T13:24:53.033Z,1002.02
2019-05-28T13:25:52.951Z,1002.04
2019-05-28T13:27:45.745Z,1002.04
2019-05-28T13:28:45.775Z,1002.06
2019-05-28T13:30:38.510Z,1002.04
2019-05-28T13:31:38.441Z,1002.06
2019-05-28T13:33:31.270Z,1002.10
2019-05-28T13:34:31.208Z,1002.10
2019-05-28T13:36:23.996Z,1002.09
2019-05-28T13:37:23.904Z,1002.10
2019-05-28T13:39:16.788Z,1002.08
2019-05-28T13:40:16.653Z,1002.07
2019-05-28T13:42:09.450Z,1002.13
2019-05-28T13:43:09.438Z,1002.12
2019-05-28T13:45:02.349Z,1002.09
2019-05-28T13:46:02.122Z,1002.13
2019-05-28T13:47:54.983Z,1002.09
2019-05-28T13:48:54.926Z,1002.09
2019-05-28T13:50:47.766Z,1002.09
2019-05-28T13:51:47.655Z,1002.12
2019-05-28T13:53:40.439Z,1002.13
2019-05-28T13:54:40.362Z,1002.11
2019-05-28T13:56:33.258Z,1002.07
2019-05-28T13:57:33.145Z,1002.09
2019-05-28T13:59:25.919Z,1002.09
2019-05-28T14:00:25.847Z,1002.16
2019-05-28T14:02:18.649Z,1002.14
2019-05-28T14:03:18.572Z,1002.15
2019-05-28T14:05:11.380Z,1002.14
2019-05-28T14:06:11.300Z,1002.14
2019-05-28T14:08:04.148Z,1002.16
2019-05-28T14:09:04.098Z,1002.14
2019-05-28T14:10:57.034Z,1002.14
2019-05-28T14:11:56.799Z,1002.11
2019-05-28T14:13:49.637Z,1002.12
2019-05-28T14:14:49.660Z,1002.12
2019-05-28T14:16:42.397Z,1002.10
2019-05-28T14:17:42.266Z,1002.14
2019-05-28T14:19:35.113Z,1002.19
2019-05-28T14:20:34.995Z,1002.18
2019-05-28T14:22:34.124Z,1002.20
2019-05-28T14:23:28.406Z,1002.21
2019-05-28T14:25:21.178Z,1002.22
2019-05-28T14:26:21.099Z,1002.20
2019-05-28T14:28:13.878Z,1002.20
2019-05-28T14:29:14.011Z,1002.20
2019-05-28T14:31:06.629Z,1002.19
2019-05-28T14:32:06.572Z,1002.25
2019-05-28T14:33:59.339Z,1002.16
2019-05-28T14:34:59.255Z,1002.25
2019-05-28T14:36:52.081Z,1002.27
2019-05-28T14:37:51.986Z,1002.32
2019-05-28T14:39:44.862Z,1002.30
2019-05-28T14:40:44.850Z,1002.32
2019-05-28T14:42:37.618Z,1002.32
2019-05-28T14:43:37.534Z,1002.32
2019-05-28T14:45:30.349Z,1002.35
2019-05-28T14:46:30.277Z,1002.35
2019-05-28T14:48:23.161Z,1002.37
2019-05-28T14:49:23.079Z,1002.37
2019-05-28T14:51:15.863Z,1002.38
2019-05-28T14:52:15.790Z,1002.39
2019-05-28T14:54:08.642Z,1002.38
2019-05-28T14:55:08.530Z,1002.37
2019-05-28T14:57:01.384Z,1002.40
2019-05-28T14:58:05.222Z,1002.41
2019-05-28T14:59:54.083Z,1002.41
2019-05-28T15:00:54.033Z,1002.44
2019-05-28T15:02:46.941Z,1002.41
2019-05-28T15:03:46.876Z,1002.46
2019-05-28T15:05:39.714Z,1002.42
2019-05-28T15:06:39.593Z,1002.42
2019-05-28T15:08:32.367Z,1002.50
2019-05-28T15:09:32.304Z,1002.47
2019-05-28T15:11:25.103Z,1002.51
2019-05-28T15:12:25.026Z,1002.53
2019-05-28T15:14:17.830Z,1002.51
2019-05-28T15:15:34.689Z,1002.53
2019-05-28T15:17:10.554Z,1002.55
2019-05-28T15:18:10.462Z,1002.57
2019-05-28T15:20:03.338Z,1002.56
2019-05-28T15:21:03.228Z,1002.60
2019-05-28T15:22:56.046Z,1002.61
2019-05-28T15:23:55.988Z,1002.63
2019-05-28T15:25:48.796Z,1002.62
2019-05-28T15:26:48.727Z,1002.61
2019-05-28T15:28:41.495Z,1002.62
2019-05-28T15:29:41.446Z,1002.65
2019-05-28T15:31:34.220Z,1002.71
2019-05-28T15:32:34.139Z,1002.72
2019-05-28T15:34:26.935Z,1002.80
2019-05-28T15:35:26.880Z,1002.79
2019-05-28T15:37:19.723Z,1002.78
2019-05-28T15:38:19.628Z,1002.84
2019-05-28T15:40:12.423Z,1002.81
2019-05-28T15:41:12.353Z,1002.79
2019-05-28T15:43:06.780Z,1002.82
2019-05-28T15:44:05.108Z,1002.83
2019-05-28T15:45:57.934Z,1002.82
2019-05-28T15:46:57.843Z,1002.82
2019-05-28T15:48:50.665Z,1002.82
2019-05-28T15:49:50.583Z,1002.83
2019-05-28T15:51:43.417Z,1002.84
2019-05-28T15:52:43.306Z,1002.88
2019-05-28T15:54:36.092Z,1002.89
2019-05-28T15:55:36.024Z,1002.92
2019-05-28T15:57:28.855Z,1002.96
2019-05-28T15:58:28.787Z,1002.92
2019-05-28T16:00:21.546Z,1002.99
2019-05-28T16:01:21.469Z,1003.00
2019-05-28T16:03:14.283Z,1003.04
2019-05-28T16:04:14.226Z,1003.05
2019-05-28T16:06:07.011Z,1003.05
2019-05-28T16:07:06.987Z,1003.06
2019-05-28T16:08:59.758Z,1003.07
2019-05-28T16:09:59.681Z,1003.11
2019-05-28T16:11:52.487Z,1003.13
2019-05-28T16:12:52.396Z,1003.08
2019-05-28T16:14:45.193Z,1003.14
2019-05-28T16:15:45.128Z,1003.16
2019-05-28T16:17:38.783Z,1003.16
2019-05-28T16:18:38.699Z,1003.22
2019-05-28T16:20:31.563Z,1003.21
2019-05-28T16:21:31.481Z,1003.23
2019-05-28T16:23:24.326Z,1003.28
2019-05-28T16:24:24.211Z,1003.27
2019-05-28T16:26:17.027Z,1003.28
2019-05-28T16:27:16.951Z,1003.29
2019-05-28T16:29:09.743Z,1003.24
2019-05-28T16:30:09.679Z,1003.26
2019-05-28T16:32:02.459Z,1003.25
2019-05-28T16:33:02.421Z,1003.26
2019-05-28T16:34:55.206Z,1003.30
2019-05-28T16:35:55.148Z,1003.31
2019-05-28T16:37:47.957Z,1003.34
2019-05-28T16:38:47.861Z,1003.39
2019-05-28T16:40:40.664Z,1003.43
2019-05-28T16:41:40.596Z,1003.40
2019-05-28T16:43:33.376Z,1003.50
2019-05-28T16:44:33.316Z,1003.50
2019-05-28T16:46:26.144Z,1003.52
2019-05-28T16:47:26.033Z,1003.55
2019-05-28T16:49:18.856Z,1003.54
2019-05-28T16:50:18.805Z,1003.56
2019-05-28T16:52:11.578Z,1003.52
2019-05-28T16:53:11.487Z,1003.55
2019-05-28T16:55:04.279Z,1003.65
2019-05-28T16:56:04.201Z,1003.61
2019-05-28T16:57:57.045Z,1003.61
2019-05-28T16:58:56.942Z,1003.73
2019-05-28T17:00:49.779Z,1003.72
2019-05-28T17:01:49.693Z,1003.72
2019-05-28T17:03:42.498Z,1003.83
2019-05-28T17:04:42.419Z,1003.83
2019-05-28T17:06:38.153Z,1003.83
2019-05-28T17:07:35.165Z,1003.92
2019-05-28T17:09:27.949Z,1003.94
2019-05-28T17:10:33.235Z,1003.97
2019-05-28T17:12:20.702Z,1003.99
2019-05-28T17:13:20.720Z,1004.02
2019-05-28T17:15:13.436Z,1004.03
2019-05-28T17:16:13.326Z,1004.04
2019-05-28T17:18:06.136Z,1004.06
2019-05-28T17:19:06.047Z,1004.04
2019-05-28T17:20:58.831Z,1004.03
2019-05-28T17:21:58.771Z,1004.07
2019-05-28T17:23:51.612Z,1004.06
2019-05-28T17:24:51.571Z,1004.11
2019-05-28T17:26:44.847Z,1004.14
2019-05-28T17:27:44.198Z,1004.17
2019-05-28T17:29:36.980Z,1004.19
2019-05-28T17:30:37.014Z,1004.16
2019-05-28T17:32:29.760Z,1004.21
2019-05-28T17:33:29.643Z,1004.22
2019-05-28T17:35:22.402Z,1004.28